Terminal Aerodrome Forecast
Issued by NWS

Home | Current Version | Previous Version | Text Only | Print | Product List | Glossary On
Versions: 1 2 3 4 5 6 7 8 9 10 11 12 13 14 15 16
618
FTAK31 PAJN 240302 AAA
TAFASI
TAF AMD
PASI 240302Z 2403/2424 17012KT P6SM -SHRA FEW004 SCT012 OVC035
      TEMPO 2403/2407 2SM SHRA SCT004 OVC012
     FM240700 16010G15KT P6SM -SHRA FEW008 SCT015 OVC025
      TEMPO 2407/2411 2SM SHRA BKN008 OVC015
     FM241100 16015G25KT 3SM SHRA SCT004 BKN010 OVC020
     FM241500 15008KT 6SM -SHRA SCT012 BKN025 OVC035=

USA.gov is the U.S. government's official web portal to all federal, state and local government web resources and services.